sensor_id;sensor_type;location;lat;lon;timestamp;P1;durP1;ratioP1;P2;durP2;ratioP2
61785;SDS011;47692;53.714;11.372;2022-08-11T00:00:50;2.75;;;1.15;;
61785;SDS011;47692;53.714;11.372;2022-08-11T00:03:16;3.17;;;1.25;;
61785;SDS011;47692;53.714;11.372;2022-08-11T00:08:24;5.27;;;1.40;;
61785;SDS011;47692;53.714;11.372;2022-08-11T00:10:58;4.45;;;1.45;;
61785;SDS011;47692;53.714;11.372;2022-08-11T00:13:48;1.80;;;1.20;;
61785;SDS011;47692;53.714;11.372;2022-08-11T00:16:16;2.25;;;1.33;;
61785;SDS011;47692;53.714;11.372;2022-08-11T00:18:48;3.85;;;1.15;;
61785;SDS011;47692;53.714;11.372;2022-08-11T00:21:15;2.33;;;1.23;;
61785;SDS011;47692;53.714;11.372;2022-08-11T00:23:44;6.68;;;1.52;;
61785;SDS011;47692;53.714;11.372;2022-08-11T00:26:16;3.17;;;1.35;;
61785;SDS011;47692;53.714;11.372;2022-08-11T00:28:42;2.92;;;1.23;;
61785;SDS011;47692;53.714;11.372;2022-08-11T00:31:09;3.58;;;1.63;;
61785;SDS011;47692;53.714;11.372;2022-08-11T00:33:45;3.28;;;1.50;;
61785;SDS011;47692;53.714;11.372;2022-08-11T00:36:15;1.73;;;1.20;;
61785;SDS011;47692;53.714;11.372;2022-08-11T00:38:42;2.17;;;1.48;;
61785;SDS011;47692;53.714;11.372;2022-08-11T00:57:38;3.35;;;1.48;;
61785;SDS011;47692;53.714;11.372;2022-08-11T01:00:19;2.78;;;1.40;;
61785;SDS011;47692;53.714;11.372;2022-08-11T01:39:08;5.38;;;1.35;;
61785;SDS011;47692;53.714;11.372;2022-08-11T01:47:30;5.07;;;1.80;;
61785;SDS011;47692;53.714;11.372;2022-08-11T01:59:11;2.88;;;1.35;;
61785;SDS011;47692;53.714;11.372;2022-08-11T02:01:49;3.42;;;1.48;;
61785;SDS011;47692;53.714;11.372;2022-08-11T02:15:13;2.65;;;1.40;;
61785;SDS011;47692;53.714;11.372;2022-08-11T02:17:52;3.30;;;1.48;;
61785;SDS011;47692;53.714;11.372;2022-08-11T02:20:29;3.40;;;1.40;;
61785;SDS011;47692;53.714;11.372;2022-08-11T02:26:14;2.95;;;1.75;;
61785;SDS011;47692;53.714;11.372;2022-08-11T02:28:50;2.67;;;1.58;;
61785;SDS011;47692;53.714;11.372;2022-08-11T02:31:32;2.50;;;1.60;;
61785;SDS011;47692;53.714;11.372;2022-08-11T02:56:47;3.13;;;1.55;;
61785;SDS011;47692;53.714;11.372;2022-08-11T03:14:06;2.05;;;1.30;;
61785;SDS011;47692;53.714;11.372;2022-08-11T03:19:48;2.88;;;1.55;;
61785;SDS011;47692;53.714;11.372;2022-08-11T03:25:16;3.03;;;1.60;;
61785;SDS011;47692;53.714;11.372;2022-08-11T03:31:09;2.63;;;1.58;;
61785;SDS011;47692;53.714;11.372;2022-08-11T03:34:25;2.25;;;1.40;;
61785;SDS011;47692;53.714;11.372;2022-08-11T03:36:44;3.03;;;1.40;;
61785;SDS011;47692;53.714;11.372;2022-08-11T03:40:06;3.30;;;1.67;;
61785;SDS011;47692;53.714;11.372;2022-08-11T03:42:53;1.92;;;1.38;;
61785;SDS011;47692;53.714;11.372;2022-08-11T03:45:46;2.70;;;1.50;;
61785;SDS011;47692;53.714;11.372;2022-08-11T03:48:24;3.10;;;1.50;;
61785;SDS011;47692;53.714;11.372;2022-08-11T03:51:05;3.17;;;1.40;;
61785;SDS011;47692;53.714;11.372;2022-08-11T03:59:50;2.45;;;1.60;;
61785;SDS011;47692;53.714;11.372;2022-08-11T04:09:00;3.17;;;1.73;;
61785;SDS011;47692;53.714;11.372;2022-08-11T04:14:34;3.85;;;1.83;;
61785;SDS011;47692;53.714;11.372;2022-08-11T04:23:39;2.85;;;1.58;;
61785;SDS011;47692;53.714;11.372;2022-08-11T04:29:23;5.95;;;1.85;;
61785;SDS011;47692;53.714;11.372;2022-08-11T04:35:12;2.50;;;1.20;;
61785;SDS011;47692;53.714;11.372;2022-08-11T04:54:19;4.10;;;1.55;;
61785;SDS011;47692;53.714;11.372;2022-08-11T05:00:29;3.00;;;1.67;;
61785;SDS011;47692;53.714;11.372;2022-08-11T05:03:28;3.15;;;1.90;;
61785;SDS011;47692;53.714;11.372;2022-08-11T05:09:19;3.00;;;1.67;;
61785;SDS011;47692;53.714;11.372;2022-08-11T05:14:38;3.80;;;1.50;;
61785;SDS011;47692;53.714;11.372;2022-08-11T05:17:35;2.42;;;1.85;;
61785;SDS011;47692;53.714;11.372;2022-08-11T05:21:04;3.38;;;1.50;;
61785;SDS011;47692;53.714;11.372;2022-08-11T05:23:50;3.40;;;1.88;;
61785;SDS011;47692;53.714;11.372;2022-08-11T05:26:46;3.20;;;1.70;;
61785;SDS011;47692;53.714;11.372;2022-08-11T05:29:46;2.70;;;1.60;;
61785;SDS011;47692;53.714;11.372;2022-08-11T05:32:41;2.47;;;1.55;;
61785;SDS011;47692;53.714;11.372;2022-08-11T05:35:46;2.00;;;1.33;;
61785;SDS011;47692;53.714;11.372;2022-08-11T05:38:21;4.72;;;1.40;;
61785;SDS011;47692;53.714;11.372;2022-08-11T05:41:10;2.60;;;1.50;;
61785;SDS011;47692;53.714;11.372;2022-08-11T05:43:54;2.75;;;1.50;;
61785;SDS011;47692;53.714;11.372;2022-08-11T05:46:42;3.03;;;1.63;;
61785;SDS011;47692;53.714;11.372;2022-08-11T05:49:28;5.32;;;1.33;;
61785;SDS011;47692;53.714;11.372;2022-08-11T05:52:20;3.90;;;1.63;;
61785;SDS011;47692;53.714;11.372;2022-08-11T05:55:06;3.35;;;1.33;;
61785;SDS011;47692;53.714;11.372;2022-08-11T05:57:56;2.83;;;2.00;;
61785;SDS011;47692;53.714;11.372;2022-08-11T06:00:25;6.57;;;1.50;;
61785;SDS011;47692;53.714;11.372;2022-08-11T06:02:52;3.22;;;1.42;;
61785;SDS011;47692;53.714;11.372;2022-08-11T06:05:19;2.33;;;1.40;;
61785;SDS011;47692;53.714;11.372;2022-08-11T06:07:46;3.15;;;1.40;;
61785;SDS011;47692;53.714;11.372;2022-08-11T06:10:12;6.43;;;1.60;;
61785;SDS011;47692;53.714;11.372;2022-08-11T06:12:39;2.30;;;1.60;;
61785;SDS011;47692;53.714;11.372;2022-08-11T06:15:07;3.25;;;1.17;;
61785;SDS011;47692;53.714;11.372;2022-08-11T06:17:42;2.95;;;1.40;;
61785;SDS011;47692;53.714;11.372;2022-08-11T06:20:11;2.38;;;1.48;;
61785;SDS011;47692;53.714;11.372;2022-08-11T06:22:38;3.33;;;1.33;;
61785;SDS011;47692;53.714;11.372;2022-08-11T06:25:07;2.65;;;1.23;;
61785;SDS011;47692;53.714;11.372;2022-08-11T06:27:34;1.85;;;1.20;;
61785;SDS011;47692;53.714;11.372;2022-08-11T06:30:02;6.00;;;1.38;;
61785;SDS011;47692;53.714;11.372;2022-08-11T06:32:37;3.05;;;1.33;;
61785;SDS011;47692;53.714;11.372;2022-08-11T06:35:21;2.28;;;1.55;;
61785;SDS011;47692;53.714;11.372;2022-08-11T06:40:48;3.28;;;1.30;;
61785;SDS011;47692;53.714;11.372;2022-08-11T06:43:44;4.85;;;1.35;;
61785;SDS011;47692;53.714;11.372;2022-08-11T06:46:14;2.40;;;1.40;;
61785;SDS011;47692;53.714;11.372;2022-08-11T06:48:47;2.05;;;1.20;;
61785;SDS011;47692;53.714;11.372;2022-08-11T06:51:13;3.65;;;1.17;;
61785;SDS011;47692;53.714;11.372;2022-08-11T06:53:48;3.92;;;1.45;;
61785;SDS011;47692;53.714;11.372;2022-08-11T06:56:30;2.55;;;1.35;;
61785;SDS011;47692;53.714;11.372;2022-08-11T06:59:18;2.85;;;1.35;;
61785;SDS011;47692;53.714;11.372;2022-08-11T07:04:48;4.43;;;1.35;;
61785;SDS011;47692;53.714;11.372;2022-08-11T07:13:10;2.15;;;1.40;;
61785;SDS011;47692;53.714;11.372;2022-08-11T07:15:58;2.83;;;1.30;;
61785;SDS011;47692;53.714;11.372;2022-08-11T07:18:25;3.63;;;1.38;;
61785;SDS011;47692;53.714;11.372;2022-08-11T07:21:14;3.97;;;1.50;;
61785;SDS011;47692;53.714;11.372;2022-08-11T07:24:12;3.20;;;1.35;;
61785;SDS011;47692;53.714;11.372;2022-08-11T07:26:59;5.72;;;1.45;;
61785;SDS011;47692;53.714;11.372;2022-08-11T07:29:46;3.78;;;1.58;;
61785;SDS011;47692;53.714;11.372;2022-08-11T07:32:21;3.70;;;1.58;;
61785;SDS011;47692;53.714;11.372;2022-08-11T07:34:57;5.88;;;1.50;;
61785;SDS011;47692;53.714;11.372;2022-08-11T07:37:28;1.80;;;1.10;;
61785;SDS011;47692;53.714;11.372;2022-08-11T07:39:57;3.58;;;1.52;;
61785;SDS011;47692;53.714;11.372;2022-08-11T07:42:26;6.47;;;1.52;;
61785;SDS011;47692;53.714;11.372;2022-08-11T07:44:54;2.47;;;1.35;;
61785;SDS011;47692;53.714;11.372;2022-08-11T07:47:40;3.63;;;1.25;;
61785;SDS011;47692;53.714;11.372;2022-08-11T07:50:25;2.40;;;1.30;;
61785;SDS011;47692;53.714;11.372;2022-08-11T07:53:09;2.00;;;1.23;;
61785;SDS011;47692;53.714;11.372;2022-08-11T07:55:37;3.88;;;1.15;;
61785;SDS011;47692;53.714;11.372;2022-08-11T07:58:03;1.88;;;1.10;;
61785;SDS011;47692;53.714;11.372;2022-08-11T08:00:49;2.15;;;1.10;;
61785;SDS011;47692;53.714;11.372;2022-08-11T08:03:36;2.63;;;1.17;;
61785;SDS011;47692;53.714;11.372;2022-08-11T08:06:22;2.22;;;1.20;;
61785;SDS011;47692;53.714;11.372;2022-08-11T08:09:07;2.03;;;1.00;;
61785;SDS011;47692;53.714;11.372;2022-08-11T08:11:52;2.97;;;0.93;;
61785;SDS011;47692;53.714;11.372;2022-08-11T08:14:36;1.50;;;1.10;;
61785;SDS011;47692;53.714;11.372;2022-08-11T08:17:21;4.10;;;1.10;;
61785;SDS011;47692;53.714;11.372;2022-08-11T08:20:07;3.25;;;1.35;;
61785;SDS011;47692;53.714;11.372;2022-08-11T08:22:35;2.42;;;1.13;;
61785;SDS011;47692;53.714;11.372;2022-08-11T08:25:01;1.85;;;1.08;;
61785;SDS011;47692;53.714;11.372;2022-08-11T08:27:27;3.70;;;1.40;;
61785;SDS011;47692;53.714;11.372;2022-08-11T08:29:53;2.45;;;1.20;;
61785;SDS011;47692;53.714;11.372;2022-08-11T08:32:40;3.30;;;1.17;;
61785;SDS011;47692;53.714;11.372;2022-08-11T08:35:09;2.70;;;1.42;;
61785;SDS011;47692;53.714;11.372;2022-08-11T08:37:35;2.97;;;1.20;;
61785;SDS011;47692;53.714;11.372;2022-08-11T08:40:01;2.40;;;1.20;;
61785;SDS011;47692;53.714;11.372;2022-08-11T08:42:30;5.53;;;1.40;;
61785;SDS011;47692;53.714;11.372;2022-08-11T08:47:29;2.17;;;0.98;;
61785;SDS011;47692;53.714;11.372;2022-08-11T08:50:00;2.05;;;1.17;;
61785;SDS011;47692;53.714;11.372;2022-08-11T08:52:31;0.90;;;0.68;;
61785;SDS011;47692;53.714;11.372;2022-08-11T08:55:05;2.38;;;0.80;;
61785;SDS011;47692;53.714;11.372;2022-08-11T08:57:34;1.52;;;1.05;;
61785;SDS011;47692;53.714;11.372;2022-08-11T09:00:00;1.80;;;0.93;;
61785;SDS011;47692;53.714;11.372;2022-08-11T09:02:28;3.17;;;1.02;;
61785;SDS011;47692;53.714;11.372;2022-08-11T09:04:54;4.70;;;1.02;;
61785;SDS011;47692;53.714;11.372;2022-08-11T09:07:22;4.00;;;1.58;;
61785;SDS011;47692;53.714;11.372;2022-08-11T09:09:51;1.73;;;0.90;;
61785;SDS011;47692;53.714;11.372;2022-08-11T09:12:19;2.67;;;1.00;;
61785;SDS011;47692;53.714;11.372;2022-08-11T09:14:48;3.58;;;1.10;;
61785;SDS011;47692;53.714;11.372;2022-08-11T09:20:05;1.52;;;0.98;;
61785;SDS011;47692;53.714;11.372;2022-08-11T09:22:33;2.03;;;1.05;;
61785;SDS011;47692;53.714;11.372;2022-08-11T09:25:20;2.50;;;1.35;;
61785;SDS011;47692;53.714;11.372;2022-08-11T09:28:12;3.17;;;1.10;;
61785;SDS011;47692;53.714;11.372;2022-08-11T09:30:42;2.03;;;0.82;;
61785;SDS011;47692;53.714;11.372;2022-08-11T09:33:11;4.75;;;1.13;;
61785;SDS011;47692;53.714;11.372;2022-08-11T09:35:39;3.17;;;1.00;;
61785;SDS011;47692;53.714;11.372;2022-08-11T09:38:11;3.45;;;1.13;;
61785;SDS011;47692;53.714;11.372;2022-08-11T09:40:57;4.97;;;1.10;;
61785;SDS011;47692;53.714;11.372;2022-08-11T09:43:24;3.50;;;1.20;;
61785;SDS011;47692;53.714;11.372;2022-08-11T09:46:08;3.60;;;1.10;;
61785;SDS011;47692;53.714;11.372;2022-08-11T09:48:42;2.13;;;1.17;;
61785;SDS011;47692;53.714;11.372;2022-08-11T09:51:09;2.85;;;0.95;;
61785;SDS011;47692;53.714;11.372;2022-08-11T09:53:36;2.72;;;0.98;;
61785;SDS011;47692;53.714;11.372;2022-08-11T09:56:06;1.42;;;1.02;;
61785;SDS011;47692;53.714;11.372;2022-08-11T09:58:53;4.70;;;1.20;;
61785;SDS011;47692;53.714;11.372;2022-08-11T10:01:20;4.43;;;0.90;;
61785;SDS011;47692;53.714;11.372;2022-08-11T10:04:02;1.85;;;1.00;;
61785;SDS011;47692;53.714;11.372;2022-08-11T10:06:29;3.05;;;1.02;;
61785;SDS011;47692;53.714;11.372;2022-08-11T10:09:17;3.42;;;1.10;;
61785;SDS011;47692;53.714;11.372;2022-08-11T10:11:44;1.70;;;0.90;;
61785;SDS011;47692;53.714;11.372;2022-08-11T10:14:09;3.25;;;1.10;;
61785;SDS011;47692;53.714;11.372;2022-08-11T10:16:54;4.35;;;1.25;;
61785;SDS011;47692;53.714;11.372;2022-08-11T10:19:20;2.67;;;1.10;;
61785;SDS011;47692;53.714;11.372;2022-08-11T10:21:47;2.72;;;1.05;;
61785;SDS011;47692;53.714;11.372;2022-08-11T10:24:34;2.35;;;1.02;;
61785;SDS011;47692;53.714;11.372;2022-08-11T10:27:19;2.70;;;0.95;;
61785;SDS011;47692;53.714;11.372;2022-08-11T10:29:45;1.65;;;0.77;;
61785;SDS011;47692;53.714;11.372;2022-08-11T10:32:30;2.10;;;1.10;;
61785;SDS011;47692;53.714;11.372;2022-08-11T10:35:16;2.53;;;0.88;;
61785;SDS011;47692;53.714;11.372;2022-08-11T10:37:44;4.25;;;1.15;;
61785;SDS011;47692;53.714;11.372;2022-08-11T10:40:15;4.80;;;1.17;;
61785;SDS011;47692;53.714;11.372;2022-08-11T10:42:42;3.65;;;1.00;;
61785;SDS011;47692;53.714;11.372;2022-08-11T10:45:26;2.75;;;1.10;;
61785;SDS011;47692;53.714;11.372;2022-08-11T10:48:12;4.00;;;1.10;;
61785;SDS011;47692;53.714;11.372;2022-08-11T10:50:39;3.50;;;1.30;;
61785;SDS011;47692;53.714;11.372;2022-08-11T10:53:28;2.63;;;0.93;;
61785;SDS011;47692;53.714;11.372;2022-08-11T10:56:12;3.70;;;1.10;;
61785;SDS011;47692;53.714;11.372;2022-08-11T10:58:56;3.70;;;1.10;;
61785;SDS011;47692;53.714;11.372;2022-08-11T11:01:27;3.90;;;1.10;;
61785;SDS011;47692;53.714;11.372;2022-08-11T11:04:03;2.53;;;1.10;;
61785;SDS011;47692;53.714;11.372;2022-08-11T11:09:05;1.52;;;0.80;;
61785;SDS011;47692;53.714;11.372;2022-08-11T11:11:36;3.47;;;1.02;;
61785;SDS011;47692;53.714;11.372;2022-08-11T11:14:30;2.47;;;0.82;;
61785;SDS011;47692;53.714;11.372;2022-08-11T11:17:18;1.95;;;0.95;;
61785;SDS011;47692;53.714;11.372;2022-08-11T11:20:12;3.58;;;1.15;;
61785;SDS011;47692;53.714;11.372;2022-08-11T11:22:41;3.80;;;1.10;;
61785;SDS011;47692;53.714;11.372;2022-08-11T11:25:23;3.33;;;0.90;;
61785;SDS011;47692;53.714;11.372;2022-08-11T11:33:27;2.10;;;1.02;;
61785;SDS011;47692;53.714;11.372;2022-08-11T11:38:45;1.85;;;0.82;;
61785;SDS011;47692;53.714;11.372;2022-08-11T11:41:10;4.03;;;1.10;;
61785;SDS011;47692;53.714;11.372;2022-08-11T11:43:49;2.95;;;0.80;;
61785;SDS011;47692;53.714;11.372;2022-08-11T11:46:14;2.50;;;0.82;;
61785;SDS011;47692;53.714;11.372;2022-08-11T11:48:41;4.03;;;0.98;;
61785;SDS011;47692;53.714;11.372;2022-08-11T11:51:07;2.35;;;0.82;;
61785;SDS011;47692;53.714;11.372;2022-08-11T11:53:34;1.98;;;0.80;;
61785;SDS011;47692;53.714;11.372;2022-08-11T11:56:00;2.97;;;0.95;;
61785;SDS011;47692;53.714;11.372;2022-08-11T11:58:27;5.70;;;0.95;;
61785;SDS011;47692;53.714;11.372;2022-08-11T12:01:11;1.20;;;0.65;;
61785;SDS011;47692;53.714;11.372;2022-08-11T12:03:42;1.30;;;0.70;;
61785;SDS011;47692;53.714;11.372;2022-08-11T12:06:10;3.17;;;0.60;;
61785;SDS011;47692;53.714;11.372;2022-08-11T12:08:38;4.97;;;0.98;;
61785;SDS011;47692;53.714;11.372;2022-08-11T12:11:10;1.90;;;0.80;;
61785;SDS011;47692;53.714;11.372;2022-08-11T12:13:57;3.20;;;0.80;;
61785;SDS011;47692;53.714;11.372;2022-08-11T12:16:24;3.72;;;0.70;;
61785;SDS011;47692;53.714;11.372;2022-08-11T12:18:51;2.35;;;1.05;;
61785;SDS011;47692;53.714;11.372;2022-08-11T12:21:20;2.13;;;0.93;;
61785;SDS011;47692;53.714;11.372;2022-08-11T12:23:47;2.70;;;1.00;;
61785;SDS011;47692;53.714;11.372;2022-08-11T12:26:33;1.35;;;0.75;;
61785;SDS011;47692;53.714;11.372;2022-08-11T12:31:44;2.85;;;0.80;;
61785;SDS011;47692;53.714;11.372;2022-08-11T12:34:11;1.20;;;0.80;;
61785;SDS011;47692;53.714;11.372;2022-08-11T12:36:39;2.28;;;0.60;;
61785;SDS011;47692;53.714;11.372;2022-08-11T12:39:26;1.67;;;0.70;;
61785;SDS011;47692;53.714;11.372;2022-08-11T12:42:16;2.55;;;0.70;;
61785;SDS011;47692;53.714;11.372;2022-08-11T12:45:01;1.63;;;0.80;;
61785;SDS011;47692;53.714;11.372;2022-08-11T12:47:50;2.85;;;0.90;;
61785;SDS011;47692;53.714;11.372;2022-08-11T12:50:35;1.50;;;0.98;;
61785;SDS011;47692;53.714;11.372;2022-08-11T12:53:24;3.00;;;0.80;;
61785;SDS011;47692;53.714;11.372;2022-08-11T12:55:52;3.53;;;0.90;;
61785;SDS011;47692;53.714;11.372;2022-08-11T12:58:40;2.60;;;1.30;;
61785;SDS011;47692;53.714;11.372;2022-08-11T13:01:07;2.08;;;0.80;;
61785;SDS011;47692;53.714;11.372;2022-08-11T13:03:52;2.38;;;0.70;;
61785;SDS011;47692;53.714;11.372;2022-08-11T13:06:38;2.45;;;0.90;;
61785;SDS011;47692;53.714;11.372;2022-08-11T13:09:05;2.85;;;0.95;;
61785;SDS011;47692;53.714;11.372;2022-08-11T13:11:33;2.65;;;1.00;;
61785;SDS011;47692;53.714;11.372;2022-08-11T13:14:21;2.97;;;1.00;;
61785;SDS011;47692;53.714;11.372;2022-08-11T13:16:46;14.00;;;1.27;;
61785;SDS011;47692;53.714;11.372;2022-08-11T13:19:31;0.85;;;0.70;;
61785;SDS011;47692;53.714;11.372;2022-08-11T13:21:58;1.65;;;0.52;;
61785;SDS011;47692;53.714;11.372;2022-08-11T13:24:25;2.90;;;0.90;;
61785;SDS011;47692;53.714;11.372;2022-08-11T13:26:52;2.13;;;1.10;;
61785;SDS011;47692;53.714;11.372;2022-08-11T13:29:23;4.82;;;1.10;;
61785;SDS011;47692;53.714;11.372;2022-08-11T13:31:50;2.13;;;0.88;;
61785;SDS011;47692;53.714;11.372;2022-08-11T13:34:18;4.97;;;0.90;;
61785;SDS011;47692;53.714;11.372;2022-08-11T13:36:45;1.67;;;0.90;;
61785;SDS011;47692;53.714;11.372;2022-08-11T13:39:13;8.10;;;1.27;;
61785;SDS011;47692;53.714;11.372;2022-08-11T13:41:39;3.65;;;1.10;;
61785;SDS011;47692;53.714;11.372;2022-08-11T13:44:09;5.63;;;0.90;;
61785;SDS011;47692;53.714;11.372;2022-08-11T13:46:37;1.92;;;0.70;;
61785;SDS011;47692;53.714;11.372;2022-08-11T13:49:03;6.13;;;1.10;;
61785;SDS011;47692;53.714;11.372;2022-08-11T13:51:32;3.88;;;0.93;;
61785;SDS011;47692;53.714;11.372;2022-08-11T13:54:03;1.77;;;0.80;;
61785;SDS011;47692;53.714;11.372;2022-08-11T13:56:32;3.00;;;0.70;;
61785;SDS011;47692;53.714;11.372;2022-08-11T13:59:00;3.75;;;1.10;;
61785;SDS011;47692;53.714;11.372;2022-08-11T14:01:28;1.65;;;0.90;;
61785;SDS011;47692;53.714;11.372;2022-08-11T14:04:03;1.30;;;0.90;;
61785;SDS011;47692;53.714;11.372;2022-08-11T14:06:33;2.42;;;0.90;;
61785;SDS011;47692;53.714;11.372;2022-08-11T14:09:01;3.08;;;0.80;;
61785;SDS011;47692;53.714;11.372;2022-08-11T14:11:28;3.20;;;0.98;;
61785;SDS011;47692;53.714;11.372;2022-08-11T14:14:15;2.08;;;0.80;;
61785;SDS011;47692;53.714;11.372;2022-08-11T14:16:46;1.60;;;0.70;;
61785;SDS011;47692;53.714;11.372;2022-08-11T14:19:15;1.40;;;0.70;;
61785;SDS011;47692;53.714;11.372;2022-08-11T14:21:43;1.73;;;0.80;;
61785;SDS011;47692;53.714;11.372;2022-08-11T14:24:28;2.83;;;0.98;;
61785;SDS011;47692;53.714;11.372;2022-08-11T14:26:53;1.52;;;0.98;;
61785;SDS011;47692;53.714;11.372;2022-08-11T14:29:20;1.85;;;0.90;;
61785;SDS011;47692;53.714;11.372;2022-08-11T14:31:57;2.45;;;1.10;;
61785;SDS011;47692;53.714;11.372;2022-08-11T14:34:26;4.30;;;0.90;;
61785;SDS011;47692;53.714;11.372;2022-08-11T14:36:59;1.40;;;0.80;;
61785;SDS011;47692;53.714;11.372;2022-08-11T14:39:27;3.30;;;0.85;;
61785;SDS011;47692;53.714;11.372;2022-08-11T14:41:56;1.95;;;0.90;;
61785;SDS011;47692;53.714;11.372;2022-08-11T14:44:44;1.83;;;0.80;;
61785;SDS011;47692;53.714;11.372;2022-08-11T14:47:34;1.45;;;0.60;;
61785;SDS011;47692;53.714;11.372;2022-08-11T14:50:03;2.03;;;1.00;;
61785;SDS011;47692;53.714;11.372;2022-08-11T14:52:31;2.45;;;0.93;;
61785;SDS011;47692;53.714;11.372;2022-08-11T14:54:59;2.67;;;0.80;;
61785;SDS011;47692;53.714;11.372;2022-08-11T14:57:44;2.15;;;0.75;;
61785;SDS011;47692;53.714;11.372;2022-08-11T15:00:12;4.13;;;1.08;;
61785;SDS011;47692;53.714;11.372;2022-08-11T15:02:42;4.20;;;0.88;;
61785;SDS011;47692;53.714;11.372;2022-08-11T15:05:29;1.27;;;0.70;;
61785;SDS011;47692;53.714;11.372;2022-08-11T15:07:55;1.65;;;0.95;;
61785;SDS011;47692;53.714;11.372;2022-08-11T15:10:22;2.50;;;0.90;;
61785;SDS011;47692;53.714;11.372;2022-08-11T15:12:48;1.20;;;0.90;;
61785;SDS011;47692;53.714;11.372;2022-08-11T15:15:13;1.63;;;0.88;;
61785;SDS011;47692;53.714;11.372;2022-08-11T15:18:01;2.42;;;1.10;;
61785;SDS011;47692;53.714;11.372;2022-08-11T15:20:30;4.07;;;0.95;;
61785;SDS011;47692;53.714;11.372;2022-08-11T15:23:15;3.30;;;0.82;;
61785;SDS011;47692;53.714;11.372;2022-08-11T15:29:28;1.85;;;0.70;;
61785;SDS011;47692;53.714;11.372;2022-08-11T15:32:14;5.00;;;0.80;;
61785;SDS011;47692;53.714;11.372;2022-08-11T15:34:48;2.35;;;0.95;;
61785;SDS011;47692;53.714;11.372;2022-08-11T15:37:44;2.72;;;0.80;;
61785;SDS011;47692;53.714;11.372;2022-08-11T15:40:18;1.50;;;1.00;;
61785;SDS011;47692;53.714;11.372;2022-08-11T15:46:28;3.63;;;1.00;;
61785;SDS011;47692;53.714;11.372;2022-08-11T15:51:54;1.77;;;0.85;;
61785;SDS011;47692;53.714;11.372;2022-08-11T15:54:40;2.50;;;1.13;;
61785;SDS011;47692;53.714;11.372;2022-08-11T15:57:08;1.58;;;1.08;;
61785;SDS011;47692;53.714;11.372;2022-08-11T15:59:54;4.32;;;1.02;;
61785;SDS011;47692;53.714;11.372;2022-08-11T16:02:42;1.50;;;0.80;;
61785;SDS011;47692;53.714;11.372;2022-08-11T16:05:21;2.30;;;0.90;;
61785;SDS011;47692;53.714;11.372;2022-08-11T16:07:49;2.50;;;0.90;;
61785;SDS011;47692;53.714;11.372;2022-08-11T16:10:17;5.22;;;0.93;;
61785;SDS011;47692;53.714;11.372;2022-08-11T16:12:49;2.08;;;1.27;;
61785;SDS011;47692;53.714;11.372;2022-08-11T16:15:30;3.55;;;1.25;;
61785;SDS011;47692;53.714;11.372;2022-08-11T16:18:20;4.95;;;1.02;;
61785;SDS011;47692;53.714;11.372;2022-08-11T16:20:52;2.38;;;1.00;;
61785;SDS011;47692;53.714;11.372;2022-08-11T16:23:20;4.35;;;1.20;;
61785;SDS011;47692;53.714;11.372;2022-08-11T16:25:50;2.42;;;1.20;;
61785;SDS011;47692;53.714;11.372;2022-08-11T16:28:18;1.65;;;1.00;;
61785;SDS011;47692;53.714;11.372;2022-08-11T16:30:45;2.67;;;1.13;;
61785;SDS011;47692;53.714;11.372;2022-08-11T16:33:13;2.35;;;1.17;;
61785;SDS011;47692;53.714;11.372;2022-08-11T16:35:39;5.38;;;1.52;;
61785;SDS011;47692;53.714;11.372;2022-08-11T16:38:28;5.07;;;1.30;;
61785;SDS011;47692;53.714;11.372;2022-08-11T16:41:10;2.38;;;1.08;;
61785;SDS011;47692;53.714;11.372;2022-08-11T16:43:44;2.65;;;1.30;;
61785;SDS011;47692;53.714;11.372;2022-08-11T16:46:30;4.65;;;1.10;;
61785;SDS011;47692;53.714;11.372;2022-08-11T16:49:16;2.97;;;1.00;;
61785;SDS011;47692;53.714;11.372;2022-08-11T16:51:44;4.90;;;1.30;;
61785;SDS011;47692;53.714;11.372;2022-08-11T16:54:10;4.00;;;1.33;;
61785;SDS011;47692;53.714;11.372;2022-08-11T16:56:37;2.85;;;1.10;;
61785;SDS011;47692;53.714;11.372;2022-08-11T16:59:08;3.92;;;1.20;;
61785;SDS011;47692;53.714;11.372;2022-08-11T17:01:43;2.00;;;1.20;;
61785;SDS011;47692;53.714;11.372;2022-08-11T17:04:35;3.30;;;1.25;;
61785;SDS011;47692;53.714;11.372;2022-08-11T17:07:23;4.07;;;1.63;;
61785;SDS011;47692;53.714;11.372;2022-08-11T17:10:23;2.58;;;1.30;;
61785;SDS011;47692;53.714;11.372;2022-08-11T17:15:44;3.13;;;1.30;;
61785;SDS011;47692;53.714;11.372;2022-08-11T17:18:30;2.15;;;1.20;;
61785;SDS011;47692;53.714;11.372;2022-08-11T17:21:25;5.90;;;1.70;;
61785;SDS011;47692;53.714;11.372;2022-08-11T17:23:55;4.53;;;1.25;;
61785;SDS011;47692;53.714;11.372;2022-08-11T17:26:26;2.45;;;1.20;;
61785;SDS011;47692;53.714;11.372;2022-08-11T17:29:16;2.53;;;1.33;;
61785;SDS011;47692;53.714;11.372;2022-08-11T17:31:44;2.80;;;1.38;;
61785;SDS011;47692;53.714;11.372;2022-08-11T17:34:29;3.35;;;1.30;;
61785;SDS011;47692;53.714;11.372;2022-08-11T17:37:15;4.13;;;1.48;;
61785;SDS011;47692;53.714;11.372;2022-08-11T17:39:42;2.25;;;1.40;;
61785;SDS011;47692;53.714;11.372;2022-08-11T17:42:09;2.85;;;1.48;;
61785;SDS011;47692;53.714;11.372;2022-08-11T17:44:54;2.92;;;1.20;;
61785;SDS011;47692;53.714;11.372;2022-08-11T17:47:40;2.88;;;1.33;;
61785;SDS011;47692;53.714;11.372;2022-08-11T17:50:24;2.60;;;1.15;;
61785;SDS011;47692;53.714;11.372;2022-08-11T17:52:51;3.55;;;1.10;;
61785;SDS011;47692;53.714;11.372;2022-08-11T17:55:36;9.82;;;1.52;;
61785;SDS011;47692;53.714;11.372;2022-08-11T17:58:21;2.75;;;1.20;;
61785;SDS011;47692;53.714;11.372;2022-08-11T18:01:06;5.93;;;1.30;;
61785;SDS011;47692;53.714;11.372;2022-08-11T18:03:35;2.78;;;1.20;;
61785;SDS011;47692;53.714;11.372;2022-08-11T18:06:11;3.47;;;1.40;;
61785;SDS011;47692;53.714;11.372;2022-08-11T18:08:42;1.90;;;1.10;;
61785;SDS011;47692;53.714;11.372;2022-08-11T18:11:32;2.83;;;1.05;;
61785;SDS011;47692;53.714;11.372;2022-08-11T18:14:17;2.17;;;1.10;;
61785;SDS011;47692;53.714;11.372;2022-08-11T18:17:03;2.83;;;1.40;;
61785;SDS011;47692;53.714;11.372;2022-08-11T18:19:47;3.03;;;0.90;;
61785;SDS011;47692;53.714;11.372;2022-08-11T18:22:39;3.88;;;1.10;;
61785;SDS011;47692;53.714;11.372;2022-08-11T18:25:31;6.53;;;1.60;;
61785;SDS011;47692;53.714;11.372;2022-08-11T18:28:18;4.65;;;1.90;;
61785;SDS011;47692;53.714;11.372;2022-08-11T18:31:06;2.42;;;1.00;;
61785;SDS011;47692;53.714;11.372;2022-08-11T18:33:55;5.32;;;1.20;;
61785;SDS011;47692;53.714;11.372;2022-08-11T18:37:17;4.95;;;1.35;;
61785;SDS011;47692;53.714;11.372;2022-08-11T18:39:59;2.50;;;1.13;;
61785;SDS011;47692;53.714;11.372;2022-08-11T18:42:48;3.05;;;1.27;;
61785;SDS011;47692;53.714;11.372;2022-08-11T18:45:35;3.38;;;1.38;;
61785;SDS011;47692;53.714;11.372;2022-08-11T18:48:23;3.08;;;1.20;;
61785;SDS011;47692;53.714;11.372;2022-08-11T18:51:09;8.95;;;1.67;;
61785;SDS011;47692;53.714;11.372;2022-08-11T18:54:00;5.47;;;1.58;;
61785;SDS011;47692;53.714;11.372;2022-08-11T18:56:46;6.60;;;1.40;;
61785;SDS011;47692;53.714;11.372;2022-08-11T18:59:33;2.38;;;1.40;;
61785;SDS011;47692;53.714;11.372;2022-08-11T19:02:19;4.97;;;1.17;;
61785;SDS011;47692;53.714;11.372;2022-08-11T19:05:06;3.40;;;1.20;;
61785;SDS011;47692;53.714;11.372;2022-08-11T19:07:52;3.97;;;1.15;;
61785;SDS011;47692;53.714;11.372;2022-08-11T19:10:40;2.20;;;1.17;;
61785;SDS011;47692;53.714;11.372;2022-08-11T19:13:26;4.18;;;1.45;;
61785;SDS011;47692;53.714;11.372;2022-08-11T19:16:11;2.72;;;1.00;;
61785;SDS011;47692;53.714;11.372;2022-08-11T19:18:56;1.90;;;1.15;;